sensor_id;sensor_type;location;lat;lon;timestamp;P1;durP1;ratioP1;P2;durP2;ratioP2
46455;SDS011;64052;47.466;9.094;2022-12-18T00:02:34;46.60;;;24.67;;
46455;SDS011;64052;47.466;9.094;2022-12-18T00:07:36;47.88;;;24.55;;
46455;SDS011;64052;47.466;9.094;2022-12-18T00:12:37;42.67;;;26.33;;
46455;SDS011;64052;47.466;9.094;2022-12-18T00:17:39;40.38;;;23.13;;
46455;SDS011;64052;47.466;9.094;2022-12-18T00:22:40;48.42;;;22.88;;
46455;SDS011;64052;47.466;9.094;2022-12-18T00:27:42;45.75;;;22.63;;
46455;SDS011;64052;47.466;9.094;2022-12-18T00:32:43;41.55;;;22.42;;
46455;SDS011;64052;47.466;9.094;2022-12-18T00:37:45;42.97;;;24.20;;
46455;SDS011;64052;47.466;9.094;2022-12-18T00:42:46;41.20;;;23.90;;
46455;SDS011;64052;47.466;9.094;2022-12-18T00:47:48;46.53;;;24.77;;
46455;SDS011;64052;47.466;9.094;2022-12-18T00:52:49;44.67;;;25.17;;
46455;SDS011;64052;47.466;9.094;2022-12-18T00:57:51;43.88;;;21.98;;
46455;SDS011;64052;47.466;9.094;2022-12-18T01:02:53;43.60;;;23.13;;
46455;SDS011;64052;47.466;9.094;2022-12-18T01:07:55;42.58;;;24.20;;
46455;SDS011;64052;47.466;9.094;2022-12-18T01:12:57;46.47;;;24.25;;
46455;SDS011;64052;47.466;9.094;2022-12-18T01:17:58;44.25;;;23.17;;
46455;SDS011;64052;47.466;9.094;2022-12-18T01:23:00;43.88;;;22.17;;
46455;SDS011;64052;47.466;9.094;2022-12-18T01:28:02;36.13;;;21.95;;
46455;SDS011;64052;47.466;9.094;2022-12-18T01:33:06;46.92;;;25.38;;
46455;SDS011;64052;47.466;9.094;2022-12-18T01:38:09;43.22;;;24.50;;
46455;SDS011;64052;47.466;9.094;2022-12-18T01:43:11;37.20;;;21.05;;
46455;SDS011;64052;47.466;9.094;2022-12-18T01:48:13;40.90;;;22.25;;
46455;SDS011;64052;47.466;9.094;2022-12-18T01:53:17;45.45;;;22.92;;
46455;SDS011;64052;47.466;9.094;2022-12-18T01:58:23;38.10;;;21.42;;
46455;SDS011;64052;47.466;9.094;2022-12-18T02:03:34;39.75;;;21.65;;
46455;SDS011;64052;47.466;9.094;2022-12-18T02:19:44;34.58;;;20.15;;
46455;SDS011;64052;47.466;9.094;2022-12-18T02:25:17;43.60;;;23.70;;
46455;SDS011;64052;47.466;9.094;2022-12-18T02:30:22;37.60;;;22.05;;
46455;SDS011;64052;47.466;9.094;2022-12-18T02:35:25;42.97;;;22.42;;
46455;SDS011;64052;47.466;9.094;2022-12-18T02:40:32;36.72;;;22.92;;
46455;SDS011;64052;47.466;9.094;2022-12-18T02:45:34;37.30;;;22.10;;
46455;SDS011;64052;47.466;9.094;2022-12-18T02:50:38;41.15;;;24.15;;
46455;SDS011;64052;47.466;9.094;2022-12-18T02:56:03;40.03;;;22.93;;
46455;SDS011;64052;47.466;9.094;2022-12-18T03:01:31;37.22;;;21.13;;
46455;SDS011;64052;47.466;9.094;2022-12-18T03:06:41;36.97;;;20.67;;
46455;SDS011;64052;47.466;9.094;2022-12-18T03:11:52;41.45;;;20.02;;
46455;SDS011;64052;47.466;9.094;2022-12-18T03:17:03;33.83;;;20.70;;
46455;SDS011;64052;47.466;9.094;2022-12-18T03:22:10;43.08;;;21.33;;
46455;SDS011;64052;47.466;9.094;2022-12-18T03:27:19;41.53;;;20.70;;
46455;SDS011;64052;47.466;9.094;2022-12-18T03:32:29;34.30;;;19.05;;
46455;SDS011;64052;47.466;9.094;2022-12-18T03:37:34;37.53;;;20.67;;
46455;SDS011;64052;47.466;9.094;2022-12-18T03:42:49;39.00;;;21.30;;
46455;SDS011;64052;47.466;9.094;2022-12-18T03:48:06;37.33;;;20.15;;
46455;SDS011;64052;47.466;9.094;2022-12-18T03:58:42;36.63;;;19.33;;
46455;SDS011;64052;47.466;9.094;2022-12-18T04:03:59;35.45;;;18.88;;
46455;SDS011;64052;47.466;9.094;2022-12-18T04:09:06;37.60;;;20.00;;
46455;SDS011;64052;47.466;9.094;2022-12-18T04:14:12;35.00;;;19.25;;
46455;SDS011;64052;47.466;9.094;2022-12-18T04:19:18;35.05;;;17.70;;
46455;SDS011;64052;47.466;9.094;2022-12-18T04:24:23;37.33;;;21.27;;
46455;SDS011;64052;47.466;9.094;2022-12-18T04:29:40;36.50;;;19.23;;
46455;SDS011;64052;47.466;9.094;2022-12-18T04:34:42;35.10;;;19.23;;
46455;SDS011;64052;47.466;9.094;2022-12-18T04:39:44;32.83;;;19.95;;
46455;SDS011;64052;47.466;9.094;2022-12-18T04:44:54;37.70;;;20.25;;
46455;SDS011;64052;47.466;9.094;2022-12-18T04:49:55;37.13;;;20.05;;
46455;SDS011;64052;47.466;9.094;2022-12-18T04:54:57;34.35;;;18.83;;
46455;SDS011;64052;47.466;9.094;2022-12-18T04:59:58;36.33;;;17.45;;
46455;SDS011;64052;47.466;9.094;2022-12-18T05:04:59;31.30;;;18.88;;
46455;SDS011;64052;47.466;9.094;2022-12-18T05:10:01;37.58;;;20.52;;
46455;SDS011;64052;47.466;9.094;2022-12-18T05:15:03;40.88;;;21.23;;
46455;SDS011;64052;47.466;9.094;2022-12-18T05:20:05;36.67;;;19.25;;
46455;SDS011;64052;47.466;9.094;2022-12-18T05:25:06;33.28;;;19.75;;
46455;SDS011;64052;47.466;9.094;2022-12-18T05:30:10;36.67;;;19.67;;
46455;SDS011;64052;47.466;9.094;2022-12-18T05:35:12;39.80;;;21.27;;
46455;SDS011;64052;47.466;9.094;2022-12-18T05:40:13;38.42;;;20.02;;
46455;SDS011;64052;47.466;9.094;2022-12-18T05:45:15;36.20;;;19.50;;
46455;SDS011;64052;47.466;9.094;2022-12-18T05:50:16;30.55;;;17.98;;
46455;SDS011;64052;47.466;9.094;2022-12-18T05:55:18;38.25;;;19.33;;
46455;SDS011;64052;47.466;9.094;2022-12-18T06:00:19;38.15;;;21.70;;
46455;SDS011;64052;47.466;9.094;2022-12-18T06:05:21;33.15;;;17.33;;
46455;SDS011;64052;47.466;9.094;2022-12-18T06:10:22;34.92;;;18.88;;
46455;SDS011;64052;47.466;9.094;2022-12-18T06:15:24;40.90;;;20.83;;
46455;SDS011;64052;47.466;9.094;2022-12-18T06:20:25;34.22;;;18.13;;
46455;SDS011;64052;47.466;9.094;2022-12-18T06:25:33;30.05;;;16.50;;
46455;SDS011;64052;47.466;9.094;2022-12-18T06:30:37;36.53;;;17.85;;
46455;SDS011;64052;47.466;9.094;2022-12-18T06:35:39;31.67;;;16.10;;
46455;SDS011;64052;47.466;9.094;2022-12-18T06:40:41;33.05;;;17.45;;
46455;SDS011;64052;47.466;9.094;2022-12-18T06:45:42;34.03;;;17.15;;
46455;SDS011;64052;47.466;9.094;2022-12-18T06:50:44;26.92;;;15.63;;
46455;SDS011;64052;47.466;9.094;2022-12-18T06:55:45;34.72;;;17.15;;
46455;SDS011;64052;47.466;9.094;2022-12-18T07:00:47;34.70;;;16.55;;
46455;SDS011;64052;47.466;9.094;2022-12-18T07:05:48;30.48;;;17.77;;
46455;SDS011;64052;47.466;9.094;2022-12-18T07:10:50;30.92;;;15.43;;
46455;SDS011;64052;47.466;9.094;2022-12-18T07:16:02;35.47;;;18.52;;
46455;SDS011;64052;47.466;9.094;2022-12-18T07:21:11;32.28;;;16.10;;
46455;SDS011;64052;47.466;9.094;2022-12-18T07:26:15;33.40;;;16.88;;
46455;SDS011;64052;47.466;9.094;2022-12-18T07:31:19;25.20;;;15.63;;
46455;SDS011;64052;47.466;9.094;2022-12-18T07:36:22;32.88;;;17.80;;
46455;SDS011;64052;47.466;9.094;2022-12-18T07:41:24;35.00;;;18.20;;
46455;SDS011;64052;47.466;9.094;2022-12-18T07:46:25;32.22;;;16.33;;
46455;SDS011;64052;47.466;9.094;2022-12-18T07:51:27;26.60;;;16.23;;
46455;SDS011;64052;47.466;9.094;2022-12-18T07:56:28;27.75;;;15.90;;
46455;SDS011;64052;47.466;9.094;2022-12-18T08:01:31;30.40;;;17.88;;
46455;SDS011;64052;47.466;9.094;2022-12-18T08:06:34;29.42;;;15.35;;
46455;SDS011;64052;47.466;9.094;2022-12-18T08:11:36;33.00;;;18.65;;
46455;SDS011;64052;47.466;9.094;2022-12-18T08:16:37;26.40;;;15.40;;
46455;SDS011;64052;47.466;9.094;2022-12-18T08:21:39;35.78;;;16.83;;
46455;SDS011;64052;47.466;9.094;2022-12-18T08:26:40;25.77;;;16.05;;
46455;SDS011;64052;47.466;9.094;2022-12-18T08:31:52;33.60;;;16.48;;
46455;SDS011;64052;47.466;9.094;2022-12-18T08:36:53;33.55;;;16.60;;
46455;SDS011;64052;47.466;9.094;2022-12-18T08:41:55;24.75;;;16.13;;
46455;SDS011;64052;47.466;9.094;2022-12-18T08:46:56;35.50;;;18.40;;
46455;SDS011;64052;47.466;9.094;2022-12-18T08:51:58;32.22;;;18.98;;
46455;SDS011;64052;47.466;9.094;2022-12-18T08:56:59;31.15;;;17.10;;
46455;SDS011;64052;47.466;9.094;2022-12-18T09:02:01;31.88;;;16.65;;
46455;SDS011;64052;47.466;9.094;2022-12-18T09:07:03;27.17;;;14.90;;
46455;SDS011;64052;47.466;9.094;2022-12-18T09:12:04;24.70;;;14.70;;
46455;SDS011;64052;47.466;9.094;2022-12-18T09:17:06;25.55;;;15.15;;
46455;SDS011;64052;47.466;9.094;2022-12-18T09:22:08;24.52;;;15.60;;
46455;SDS011;64052;47.466;9.094;2022-12-18T09:27:09;24.60;;;14.85;;
46455;SDS011;64052;47.466;9.094;2022-12-18T09:32:11;27.98;;;15.95;;
46455;SDS011;64052;47.466;9.094;2022-12-18T09:37:17;27.17;;;15.68;;
46455;SDS011;64052;47.466;9.094;2022-12-18T09:42:22;23.70;;;13.20;;
46455;SDS011;64052;47.466;9.094;2022-12-18T09:47:25;28.65;;;15.88;;
46455;SDS011;64052;47.466;9.094;2022-12-18T09:52:35;22.73;;;15.52;;
46455;SDS011;64052;47.466;9.094;2022-12-18T09:57:42;23.60;;;12.77;;
46455;SDS011;64052;47.466;9.094;2022-12-18T10:02:53;21.63;;;12.77;;
46455;SDS011;64052;47.466;9.094;2022-12-18T10:13:47;23.33;;;12.57;;
46455;SDS011;64052;47.466;9.094;2022-12-18T10:19:08;24.65;;;12.70;;
46455;SDS011;64052;47.466;9.094;2022-12-18T10:29:40;19.98;;;13.23;;
46455;SDS011;64052;47.466;9.094;2022-12-18T10:34:49;17.98;;;11.48;;
46455;SDS011;64052;47.466;9.094;2022-12-18T10:40:06;21.35;;;12.25;;
46455;SDS011;64052;47.466;9.094;2022-12-18T10:45:22;23.10;;;12.48;;
46455;SDS011;64052;47.466;9.094;2022-12-18T10:55:54;23.85;;;12.70;;
46455;SDS011;64052;47.466;9.094;2022-12-18T11:01:14;27.70;;;12.70;;
46455;SDS011;64052;47.466;9.094;2022-12-18T11:06:19;24.67;;;14.25;;
46455;SDS011;64052;47.466;9.094;2022-12-18T11:11:23;24.08;;;13.00;;
46455;SDS011;64052;47.466;9.094;2022-12-18T11:16:25;22.48;;;14.52;;
46455;SDS011;64052;47.466;9.094;2022-12-18T11:21:28;22.92;;;12.43;;
46455;SDS011;64052;47.466;9.094;2022-12-18T11:26:34;23.40;;;11.57;;
46455;SDS011;64052;47.466;9.094;2022-12-18T11:31:37;21.25;;;13.57;;
46455;SDS011;64052;47.466;9.094;2022-12-18T11:36:40;26.10;;;12.50;;
46455;SDS011;64052;47.466;9.094;2022-12-18T11:41:50;23.92;;;14.60;;
46455;SDS011;64052;47.466;9.094;2022-12-18T11:58:20;20.45;;;13.27;;
46455;SDS011;64052;47.466;9.094;2022-12-18T14:24:11;28.05;;;14.90;;
46455;SDS011;64052;47.466;9.094;2022-12-18T14:29:22;20.85;;;13.27;;
46455;SDS011;64052;47.466;9.094;2022-12-18T14:34:31;28.60;;;16.08;;
46455;SDS011;64052;47.466;9.094;2022-12-18T14:39:32;26.50;;;14.23;;
46455;SDS011;64052;47.466;9.094;2022-12-18T14:44:34;30.75;;;14.02;;
46455;SDS011;64052;47.466;9.094;2022-12-18T14:49:55;29.67;;;16.20;;
46455;SDS011;64052;47.466;9.094;2022-12-18T14:54:57;28.33;;;15.77;;
46455;SDS011;64052;47.466;9.094;2022-12-18T15:00:06;28.55;;;15.13;;
46455;SDS011;64052;47.466;9.094;2022-12-18T15:49:23;35.00;;;19.85;;
46455;SDS011;64052;47.466;9.094;2022-12-18T15:54:24;30.67;;;20.33;;
46455;SDS011;64052;47.466;9.094;2022-12-18T15:59:26;39.40;;;21.48;;
46455;SDS011;64052;47.466;9.094;2022-12-18T20:17:38;35.58;;;20.77;;
46455;SDS011;64052;47.466;9.094;2022-12-18T20:22:40;40.90;;;22.52;;
46455;SDS011;64052;47.466;9.094;2022-12-18T20:27:41;86.78;;;41.65;;
46455;SDS011;64052;47.466;9.094;2022-12-18T20:32:43;45.25;;;22.65;;
46455;SDS011;64052;47.466;9.094;2022-12-18T20:37:44;41.05;;;20.85;;
46455;SDS011;64052;47.466;9.094;2022-12-18T20:42:51;38.17;;;22.90;;
46455;SDS011;64052;47.466;9.094;2022-12-18T20:47:53;42.55;;;20.33;;
46455;SDS011;64052;47.466;9.094;2022-12-18T20:52:55;37.22;;;20.13;;
46455;SDS011;64052;47.466;9.094;2022-12-18T20:57:56;45.03;;;23.65;;
46455;SDS011;64052;47.466;9.094;2022-12-18T21:02:58;39.13;;;22.30;;
46455;SDS011;64052;47.466;9.094;2022-12-18T21:07:59;44.17;;;22.60;;
46455;SDS011;64052;47.466;9.094;2022-12-18T21:13:01;35.85;;;21.13;;
46455;SDS011;64052;47.466;9.094;2022-12-18T21:18:08;40.28;;;21.45;;
46455;SDS011;64052;47.466;9.094;2022-12-18T21:33:57;38.17;;;20.23;;
46455;SDS011;64052;47.466;9.094;2022-12-18T21:39:02;39.08;;;20.73;;
46455;SDS011;64052;47.466;9.094;2022-12-18T21:44:04;37.10;;;20.67;;
46455;SDS011;64052;47.466;9.094;2022-12-18T21:49:07;46.97;;;24.33;;
46455;SDS011;64052;47.466;9.094;2022-12-18T21:54:09;40.55;;;23.05;;
46455;SDS011;64052;47.466;9.094;2022-12-18T21:59:12;40.95;;;21.30;;
46455;SDS011;64052;47.466;9.094;2022-12-18T22:04:16;40.90;;;21.27;;
46455;SDS011;64052;47.466;9.094;2022-12-18T22:09:19;38.42;;;19.67;;
46455;SDS011;64052;47.466;9.094;2022-12-18T22:14:22;35.60;;;19.27;;
46455;SDS011;64052;47.466;9.094;2022-12-18T22:19:24;40.95;;;21.88;;
46455;SDS011;64052;47.466;9.094;2022-12-18T22:24:25;39.75;;;22.20;;
46455;SDS011;64052;47.466;9.094;2022-12-18T22:29:27;39.60;;;20.70;;
46455;SDS011;64052;47.466;9.094;2022-12-18T22:34:30;44.65;;;21.55;;
46455;SDS011;64052;47.466;9.094;2022-12-18T22:39:36;39.55;;;21.13;;
46455;SDS011;64052;47.466;9.094;2022-12-18T22:44:38;38.20;;;18.95;;
46455;SDS011;64052;47.466;9.094;2022-12-18T22:49:40;37.15;;;21.77;;
46455;SDS011;64052;47.466;9.094;2022-12-18T22:54:41;34.55;;;18.33;;
46455;SDS011;64052;47.466;9.094;2022-12-18T22:59:43;37.13;;;18.13;;
46455;SDS011;64052;47.466;9.094;2022-12-18T23:04:44;33.55;;;19.58;;
46455;SDS011;64052;47.466;9.094;2022-12-18T23:09:46;35.15;;;19.30;;
46455;SDS011;64052;47.466;9.094;2022-12-18T23:14:50;36.65;;;18.75;;
46455;SDS011;64052;47.466;9.094;2022-12-18T23:19:51;32.97;;;18.80;;
46455;SDS011;64052;47.466;9.094;2022-12-18T23:24:53;30.52;;;17.40;;
46455;SDS011;64052;47.466;9.094;2022-12-18T23:29:54;32.95;;;19.08;;
46455;SDS011;64052;47.466;9.094;2022-12-18T23:34:58;38.15;;;20.38;;
46455;SDS011;64052;47.466;9.094;2022-12-18T23:40:00;34.67;;;18.55;;
46455;SDS011;64052;47.466;9.094;2022-12-18T23:45:01;35.65;;;20.40;;
46455;SDS011;64052;47.466;9.094;2022-12-18T23:50:18;37.15;;;20.50;;
46455;SDS011;64052;47.466;9.094;2022-12-18T23:55:24;30.38;;;18.45;;
